sensor_id;sensor_type;location;lat;lon;timestamp;pressure;altitude;pressure_sealevel;temperature;humidity
9261;BME280;4667;42.726;23.252;2024-01-16T10:02:33;94653.50;;;5.69;47.08
9261;BME280;4667;42.726;23.252;2024-01-16T10:05:00;94762.88;;;6.31;46.49
9261;BME280;4667;42.726;23.252;2024-01-16T10:07:29;94611.03;;;4.92;47.01
9261;BME280;4667;42.726;23.252;2024-01-16T10:09:57;94488.00;;;3.70;47.91
9261;BME280;4667;42.726;23.252;2024-01-16T10:12:24;94581.84;;;4.30;48.37
9261;BME280;4667;42.726;23.252;2024-01-16T10:14:54;94548.72;;;3.88;48.83
9261;BME280;4667;42.726;23.252;2024-01-16T10:17:22;94786.44;;;4.95;49.22
9261;BME280;4667;42.726;23.252;2024-01-16T10:20:03;94840.72;;;5.12;49.52
9261;BME280;4667;42.726;23.252;2024-01-16T10:22:31;94688.19;;;4.04;49.77
9261;BME280;4667;42.726;23.252;2024-01-16T10:25:04;94837.34;;;4.93;50.62
9261;BME280;4667;42.726;23.252;2024-01-16T10:27:32;94648.97;;;3.62;51.41
9261;BME280;4667;42.726;23.252;2024-01-16T10:29:59;94667.50;;;3.54;52.16
9261;BME280;4667;42.726;23.252;2024-01-16T10:32:30;94847.91;;;4.68;52.05
9261;BME280;4667;42.726;23.252;2024-01-16T10:35:05;94852.19;;;4.44;52.15
9261;BME280;4667;42.726;23.252;2024-01-16T10:37:42;94849.94;;;4.48;52.69
9261;BME280;4667;42.726;23.252;2024-01-16T10:40:14;94756.97;;;3.55;52.86
9261;BME280;4667;42.726;23.252;2024-01-16T10:42:41;94759.03;;;3.89;52.85
9261;BME280;4667;42.726;23.252;2024-01-16T10:45:16;94734.53;;;3.90;53.10
9261;BME280;4667;42.726;23.252;2024-01-16T10:47:45;94798.88;;;4.52;52.81
9261;BME280;4667;42.726;23.252;2024-01-16T10:50:13;94521.03;;;2.91;52.03
9261;BME280;4667;42.726;23.252;2024-01-16T10:52:46;94831.38;;;5.16;50.69
9261;BME280;4667;42.726;23.252;2024-01-16T10:55:19;94823.66;;;5.21;50.03
9261;BME280;4667;42.726;23.252;2024-01-16T10:57:48;94834.75;;;5.35;48.90
9261;BME280;4667;42.726;23.252;2024-01-16T11:00:18;94777.16;;;4.69;48.77
9261;BME280;4667;42.726;23.252;2024-01-16T11:02:50;94862.06;;;5.09;48.63
9261;BME280;4667;42.726;23.252;2024-01-16T11:05:22;94690.25;;;4.02;49.25
9261;BME280;4667;42.726;23.252;2024-01-16T11:07:50;94779.19;;;4.67;49.92
9261;BME280;4667;42.726;23.252;2024-01-16T11:10:17;94841.41;;;5.19;50.12
9261;BME280;4667;42.726;23.252;2024-01-16T11:12:45;94799.25;;;4.85;50.49
9261;BME280;4667;42.726;23.252;2024-01-16T11:15:14;94844.25;;;4.87;51.64
9261;BME280;4667;42.726;23.252;2024-01-16T11:17:44;94850.41;;;4.93;52.14
9261;BME280;4667;42.726;23.252;2024-01-16T11:20:12;94594.16;;;3.51;50.76
9261;BME280;4667;42.726;23.252;2024-01-16T11:22:43;94773.84;;;4.62;50.84
9261;BME280;4667;42.726;23.252;2024-01-16T11:25:12;94744.84;;;4.52;51.21
9261;BME280;4667;42.726;23.252;2024-01-16T11:27:41;94855.84;;;5.21;51.97
9261;BME280;4667;42.726;23.252;2024-01-16T11:30:09;94858.81;;;5.25;52.18
9261;BME280;4667;42.726;23.252;2024-01-16T11:32:39;94868.59;;;5.30;51.39
9261;BME280;4667;42.726;23.252;2024-01-16T11:35:08;94852.84;;;5.06;52.28
9261;BME280;4667;42.726;23.252;2024-01-16T11:37:48;94703.56;;;4.12;52.09
9261;BME280;4667;42.726;23.252;2024-01-16T14:03:29;94528.44;;;2.50;47.65
9261;BME280;4667;42.726;23.252;2024-01-16T14:06:00;94656.53;;;3.27;46.70
9261;BME280;4667;42.726;23.252;2024-01-16T14:08:27;94633.03;;;3.71;45.75
9261;BME280;4667;42.726;23.252;2024-01-16T14:10:57;94984.63;;;5.47;46.13
